イエローナイフ の空港の天気 - METARとTAF

イエローナイフ空港 ( CYZF / YZF ) - カナダ ノースウエスト準州イエローナイフ
飛行場実況気象(Metar)
観測時間09/24 19:29 MDT (09/25 01:29 UTC)
風向・風速北北西 2m/s
視程10km以上
天気現象
少しの雲 雲底高度 610m
少しの雲 雲底高度 7320m
気温2℃
湿度75%
気圧1015.7hPa
METARCYZF 250129Z 34003KT 15SM FEW020 FEW240 02/M02 A2995 RMK SC1CI1 SC TR CI TR SLP157
過去の天気等 Google飛行場航空写真 Wunderground天気予報

過去48時間のMETAR

飛行場予報(TAF)
発表時間: 9/24 17:38 MDT (9/24 23:38 UTC)
予報対象時間: 24日18時 MDT ~ 25日18時 MDT
風向・風速北 5m/s
視程10km以上
少しの雲 雲底高度 460m
25日0時 MDT から
風向・風速南東 3m/s
視程10km以上
全天の4割程度の雲 雲底高度 1830m
25日0時 MDT ~ 25日16時 MDT に一時的に
全天の8割程度の雲 雲底高度 1830m
25日5時 MDT ~ 25日7時 MDT に徐々に
風向・風速西南西 4m/s
25日16時 MDT から
風向・風速南 4m/s
視程10km以上
天気現象弱いしゅう雨
全天の4割程度の雲 雲底高度 910m
全天の8割程度の雲 雲底高度 1830m
TAF CYZF 242338Z 2500/2524 35010KT P6SM FEW015
FM250600 14006KT P6SM SCT060
TEMPO 2506/2522 BKN060
BECMG 2511/2513 25007KT
FM252200 17007KT P6SM -SHRA SCT030 BKN060 RMK NXT FCST BY 250600Z